createdAt,value
2022-08-25T00:10:03.385Z,79.70
2022-08-25T00:15:58.482Z,81.20
2022-08-25T00:21:52.588Z,88.40
2022-08-25T00:27:46.608Z,91.40
2022-08-25T00:33:41.431Z,92.00
2022-08-25T00:39:34.957Z,95.60
2022-08-25T00:45:28.078Z,99.90
2022-08-25T00:51:30.654Z,99.90
2022-08-25T00:57:34.114Z,99.90
2022-08-25T01:03:33.034Z,99.90
2022-08-25T01:09:32.873Z,99.90
2022-08-25T01:15:25.985Z,99.90
2022-08-25T01:21:22.689Z,99.90
2022-08-25T01:27:15.862Z,99.90
2022-08-25T01:33:11.076Z,99.90
2022-08-25T01:39:06.766Z,99.90
2022-08-25T01:45:00.064Z,99.90
2022-08-25T01:50:53.420Z,99.90
2022-08-25T01:56:48.656Z,99.90
2022-08-25T02:02:42.919Z,99.90
2022-08-25T02:08:38.602Z,99.90
2022-08-25T02:14:33.359Z,99.90
2022-08-25T02:20:26.574Z,99.90
2022-08-25T02:26:20.382Z,99.90
2022-08-25T02:32:15.311Z,99.90
2022-08-25T02:38:08.711Z,99.90
2022-08-25T02:44:02.926Z,99.90
2022-08-25T02:49:57.253Z,99.90
2022-08-25T02:55:50.614Z,99.90
2022-08-25T03:01:43.995Z,99.90
2022-08-25T03:07:39.800Z,99.90
2022-08-25T03:13:33.594Z,99.90
2022-08-25T03:19:27.130Z,99.90
2022-08-25T03:25:39.208Z,99.90
2022-08-25T03:31:33.417Z,99.90
2022-08-25T03:37:26.951Z,99.90
2022-08-25T03:43:22.273Z,99.90
2022-08-25T03:49:18.053Z,99.90
2022-08-25T03:55:14.506Z,99.90
2022-08-25T04:01:09.529Z,99.90
2022-08-25T04:07:02.951Z,99.90
2022-08-25T04:12:56.368Z,99.90
2022-08-25T04:18:52.185Z,99.90
2022-08-25T04:24:45.440Z,99.90
2022-08-25T04:30:43.936Z,99.90
2022-08-25T04:36:38.714Z,99.90
2022-08-25T04:42:32.237Z,99.90
2022-08-25T04:48:26.120Z,99.90
2022-08-25T04:54:22.050Z,99.90
2022-08-25T05:00:16.593Z,99.90
2022-08-25T05:06:15.305Z,99.90
2022-08-25T05:12:11.207Z,99.90
2022-08-25T05:18:05.916Z,99.90
2022-08-25T05:23:59.973Z,99.90
2022-08-25T05:29:54.365Z,99.90
2022-08-25T05:35:47.738Z,99.90
2022-08-25T05:41:41.335Z,99.90
2022-08-25T05:47:35.793Z,99.90
2022-08-25T05:53:31.130Z,99.90
2022-08-25T05:59:27.611Z,99.90
2022-08-25T06:05:24.537Z,99.90
2022-08-25T06:11:17.643Z,99.90
2022-08-25T06:17:11.559Z,99.90
2022-08-25T06:23:06.420Z,99.90
2022-08-25T06:28:59.485Z,99.90
2022-08-25T06:34:52.526Z,99.90
2022-08-25T06:40:48.886Z,99.90
2022-08-25T06:46:42.293Z,99.90
2022-08-25T06:52:35.625Z,99.90
2022-08-25T06:58:30.040Z,99.90
2022-08-25T07:04:24.038Z,99.90
2022-08-25T07:10:19.550Z,99.90
2022-08-25T07:16:15.744Z,99.90
2022-08-25T07:22:09.469Z,99.90
2022-08-25T07:28:03.082Z,99.90
2022-08-25T07:34:16.350Z,99.90
2022-08-25T07:40:12.252Z,99.90
2022-08-25T07:46:08.311Z,99.90
2022-08-25T07:52:05.038Z,99.90
2022-08-25T07:58:01.587Z,99.90
2022-08-25T08:03:55.110Z,99.90
2022-08-25T08:09:56.019Z,99.90
2022-08-25T08:15:53.883Z,99.90
2022-08-25T08:21:48.606Z,99.90
2022-08-25T08:27:47.485Z,99.90
2022-08-25T08:33:41.126Z,99.90
2022-08-25T08:39:34.610Z,99.90
2022-08-25T08:45:40.532Z,99.90
2022-08-25T08:51:47.693Z,99.90
2022-08-25T09:03:55.509Z,99.90
2022-08-25T09:09:49.192Z,99.90
2022-08-25T09:16:10.304Z,99.90
2022-08-25T09:22:33.829Z,99.90
2022-08-25T09:28:33.510Z,99.90
2022-08-25T09:34:33.484Z,99.90
2022-08-25T09:40:30.519Z,99.90
2022-08-25T09:46:29.701Z,99.90
2022-08-25T09:52:35.178Z,99.90
2022-08-25T09:58:29.931Z,99.90
2022-08-25T10:04:28.086Z,99.90
2022-08-25T10:10:26.530Z,99.90
2022-08-25T10:16:32.078Z,99.90
2022-08-25T10:22:32.772Z,99.90
2022-08-25T10:28:35.004Z,99.90
2022-08-25T10:34:44.463Z,99.90
2022-08-25T10:40:44.656Z,99.90
2022-08-25T10:46:46.769Z,99.90
2022-08-25T10:52:55.393Z,99.90
2022-08-25T10:59:14.255Z,97.00
2022-08-25T11:05:13.419Z,99.90
2022-08-25T11:11:12.634Z,84.80
2022-08-25T11:17:11.687Z,76.80
2022-08-25T11:23:13.103Z,74.30
2022-08-25T11:29:14.012Z,65.60
2022-08-25T11:35:12.989Z,58.80
2022-08-25T11:41:18.941Z,51.80
2022-08-25T11:47:40.584Z,41.00
2022-08-25T11:53:37.669Z,42.70
2022-08-25T12:00:20.970Z,31.80
2022-08-25T12:06:27.994Z,15.80
2022-08-25T12:12:56.914Z,7.00
2022-08-25T12:18:51.060Z,5.50
2022-08-25T12:24:54.057Z,1.00
2022-08-25T12:30:54.181Z,1.00
2022-08-25T12:36:59.241Z,1.00
2022-08-25T12:43:04.609Z,1.00
2022-08-25T12:49:00.758Z,1.00
2022-08-25T12:54:58.316Z,1.00
2022-08-25T13:01:15.650Z,1.00
2022-08-25T13:07:37.852Z,1.00
2022-08-25T13:13:46.874Z,1.00
2022-08-25T13:19:41.796Z,1.00
2022-08-25T13:25:37.071Z,1.00
2022-08-25T13:31:31.683Z,1.00
2022-08-25T13:37:30.057Z,1.00
2022-08-25T13:43:27.476Z,1.00
2022-08-25T13:49:28.097Z,1.00
2022-08-25T13:55:27.682Z,1.00
2022-08-25T14:01:47.338Z,1.00
2022-08-25T14:07:42.724Z,1.00
2022-08-25T14:13:39.867Z,1.00
2022-08-25T14:19:45.783Z,1.00
2022-08-25T14:25:42.558Z,1.00
2022-08-25T14:31:39.803Z,1.00
2022-08-25T14:37:34.761Z,1.00
2022-08-25T14:43:31.727Z,1.00
2022-08-25T14:49:34.211Z,1.00
2022-08-25T14:55:31.303Z,1.00
2022-08-25T15:01:29.368Z,1.00
2022-08-25T15:07:42.500Z,1.00
2022-08-25T15:13:36.936Z,1.00
2022-08-25T15:19:30.566Z,1.00
2022-08-25T15:25:24.868Z,1.00
2022-08-25T15:31:19.862Z,1.00
2022-08-25T15:37:16.971Z,1.00
2022-08-25T15:43:11.747Z,1.00
2022-08-25T15:49:05.633Z,1.00
2022-08-25T15:55:01.325Z,1.00
2022-08-25T16:00:56.589Z,1.00
2022-08-25T16:06:50.526Z,1.00
2022-08-25T16:12:43.979Z,1.00
2022-08-25T16:18:38.806Z,1.00
2022-08-25T16:24:32.239Z,1.00
2022-08-25T16:30:31.825Z,1.00
2022-08-25T16:36:28.438Z,1.00
2022-08-25T16:42:21.541Z,1.00
2022-08-25T16:48:15.034Z,1.00
2022-08-25T16:54:28.741Z,1.00
2022-08-25T17:00:24.751Z,1.00
2022-08-25T17:06:17.904Z,1.00
2022-08-25T17:12:12.647Z,1.00
2022-08-25T17:18:05.797Z,1.00
2022-08-25T17:23:59.902Z,1.00
2022-08-25T17:29:54.992Z,1.00
2022-08-25T17:35:51.567Z,1.00
2022-08-25T17:41:46.744Z,1.00
2022-08-25T17:47:41.471Z,1.00
2022-08-25T17:53:37.171Z,1.00
2022-08-25T17:59:32.484Z,1.00
2022-08-25T18:05:28.033Z,1.00
2022-08-25T18:11:23.988Z,1.00
2022-08-25T18:17:22.001Z,1.00
2022-08-25T18:23:19.882Z,1.00
2022-08-25T18:29:13.430Z,1.00
2022-08-25T18:35:08.337Z,1.00
2022-08-25T18:41:06.425Z,1.00
2022-08-25T18:47:00.201Z,1.00
2022-08-25T18:53:02.261Z,1.00
2022-08-25T18:58:57.126Z,1.00
2022-08-25T19:04:52.443Z,1.00
2022-08-25T19:10:48.026Z,1.00
2022-08-25T19:16:44.428Z,1.00
2022-08-25T19:22:41.716Z,1.00
2022-08-25T19:28:36.024Z,1.00
2022-08-25T19:34:36.783Z,1.00
2022-08-25T19:40:31.472Z,1.00
2022-08-25T19:46:33.190Z,1.00
2022-08-25T19:52:28.838Z,1.00
2022-08-25T19:58:22.400Z,1.00
2022-08-25T20:04:16.043Z,1.00
2022-08-25T20:10:13.976Z,1.00
2022-08-25T20:16:08.294Z,1.00
2022-08-25T20:22:01.748Z,1.00
2022-08-25T20:27:57.419Z,1.30
2022-08-25T20:33:50.885Z,1.30
2022-08-25T20:39:45.608Z,4.50
2022-08-25T20:45:40.522Z,7.70
2022-08-25T20:51:34.102Z,8.90
2022-08-25T20:57:27.293Z,11.80
2022-08-25T21:03:22.408Z,14.00
2022-08-25T21:09:20.085Z,15.50
2022-08-25T21:15:18.135Z,17.10
2022-08-25T21:21:16.494Z,17.20
2022-08-25T21:27:10.128Z,20.30
2022-08-25T21:33:04.539Z,23.10
2022-08-25T21:39:02.052Z,25.50
2022-08-25T21:44:55.083Z,30.30
2022-08-25T21:50:48.433Z,34.00
2022-08-25T21:56:45.033Z,38.20
2022-08-25T22:02:38.796Z,42.80
2022-08-25T22:08:32.618Z,51.20
2022-08-25T22:14:28.209Z,62.80
2022-08-25T22:20:21.942Z,71.60
2022-08-25T22:26:16.800Z,82.60
2022-08-25T22:32:16.941Z,92.00
2022-08-25T22:38:12.590Z,94.00
2022-08-25T22:44:07.131Z,98.70
2022-08-25T22:50:02.076Z,99.90
2022-08-25T22:55:59.157Z,99.90
2022-08-25T23:01:56.504Z,99.90
2022-08-25T23:07:51.209Z,99.90
2022-08-25T23:13:44.666Z,99.90
2022-08-25T23:19:38.072Z,99.90
2022-08-25T23:25:32.731Z,99.90
2022-08-25T23:31:26.272Z,99.90
2022-08-25T23:37:21.451Z,99.90
2022-08-25T23:43:15.877Z,99.90
2022-08-25T23:49:09.478Z,99.90
2022-08-25T23:55:03.241Z,99.90
